sensor_id;sensor_type;location;lat;lon;timestamp;temperature;humidity
68251;DHT22;55066;51.560;4.642;2024-02-04T00:00:14;10.07;99.99
68251;DHT22;55066;51.560;4.642;2024-02-04T00:02:40;10.10;99.99
68251;DHT22;55066;51.560;4.642;2024-02-04T00:05:05;10.03;99.99
68251;DHT22;55066;51.560;4.642;2024-02-04T00:07:31;10.02;99.99
68251;DHT22;55066;51.560;4.642;2024-02-04T00:09:57;10.02;99.99
68251;DHT22;55066;51.560;4.642;2024-02-04T00:12:24;10.10;99.99
68251;DHT22;55066;51.560;4.642;2024-02-04T00:14:50;10.07;99.99
68251;DHT22;55066;51.560;4.642;2024-02-04T00:17:16;10.03;99.99
68251;DHT22;55066;51.560;4.642;2024-02-04T00:19:42;10.10;99.99
68251;DHT22;55066;51.560;4.642;2024-02-04T00:22:07;10.11;99.99
68251;DHT22;55066;51.560;4.642;2024-02-04T00:24:33;10.11;99.99
68251;DHT22;55066;51.560;4.642;2024-02-04T00:27:00;10.06;99.99
68251;DHT22;55066;51.560;4.642;2024-02-04T00:29:25;10.06;99.99
68251;DHT22;55066;51.560;4.642;2024-02-04T00:31:51;10.13;99.99
68251;DHT22;55066;51.560;4.642;2024-02-04T00:34:16;10.09;99.99
68251;DHT22;55066;51.560;4.642;2024-02-04T00:36:42;10.09;99.99
68251;DHT22;55066;51.560;4.642;2024-02-04T00:39:07;10.07;99.99
68251;DHT22;55066;51.560;4.642;2024-02-04T00:41:34;10.04;99.99
68251;DHT22;55066;51.560;4.642;2024-02-04T00:44:00;10.10;99.99
68251;DHT22;55066;51.560;4.642;2024-02-04T00:46:26;10.03;99.99
68251;DHT22;55066;51.560;4.642;2024-02-04T00:48:52;10.04;99.99
68251;DHT22;55066;51.560;4.642;2024-02-04T00:51:17;10.09;99.99
68251;DHT22;55066;51.560;4.642;2024-02-04T00:53:46;10.03;99.99
68251;DHT22;55066;51.560;4.642;2024-02-04T00:56:12;10.02;99.99
68251;DHT22;55066;51.560;4.642;2024-02-04T00:58:38;10.10;99.99
68251;DHT22;55066;51.560;4.642;2024-02-04T01:01:04;10.07;99.99
68251;DHT22;55066;51.560;4.642;2024-02-04T01:03:31;9.99;99.99
68251;DHT22;55066;51.560;4.642;2024-02-04T01:05:57;9.94;99.99
68251;DHT22;55066;51.560;4.642;2024-02-04T01:08:23;9.93;99.99
68251;DHT22;55066;51.560;4.642;2024-02-04T01:10:48;10.03;99.99
68251;DHT22;55066;51.560;4.642;2024-02-04T01:13:16;10.06;99.99
68251;DHT22;55066;51.560;4.642;2024-02-04T01:15:42;9.96;99.99
68251;DHT22;55066;51.560;4.642;2024-02-04T01:18:07;9.97;99.99
68251;DHT22;55066;51.560;4.642;2024-02-04T01:20:33;9.93;99.99
68251;DHT22;55066;51.560;4.642;2024-02-04T01:22:58;9.94;99.99
68251;DHT22;55066;51.560;4.642;2024-02-04T01:25:24;10.00;99.99
68251;DHT22;55066;51.560;4.642;2024-02-04T01:27:49;9.96;99.99
68251;DHT22;55066;51.560;4.642;2024-02-04T01:30:15;9.86;99.99
68251;DHT22;55066;51.560;4.642;2024-02-04T01:32:40;9.86;99.99
68251;DHT22;55066;51.560;4.642;2024-02-04T01:35:08;9.94;99.99
68251;DHT22;55066;51.560;4.642;2024-02-04T01:37:33;9.93;99.99
68251;DHT22;55066;51.560;4.642;2024-02-04T01:39:59;9.90;99.99
68251;DHT22;55066;51.560;4.642;2024-02-04T01:42:24;9.87;99.99
68251;DHT22;55066;51.560;4.642;2024-02-04T01:44:50;9.87;99.99
68251;DHT22;55066;51.560;4.642;2024-02-04T01:47:16;9.87;99.99
68251;DHT22;55066;51.560;4.642;2024-02-04T01:49:43;9.86;99.99
68251;DHT22;55066;51.560;4.642;2024-02-04T01:52:09;9.76;99.99
68251;DHT22;55066;51.560;4.642;2024-02-04T01:54:39;9.76;99.99
68251;DHT22;55066;51.560;4.642;2024-02-04T01:57:05;9.83;99.99
68251;DHT22;55066;51.560;4.642;2024-02-04T01:59:31;9.62;99.99
68251;DHT22;55066;51.560;4.642;2024-02-04T02:02:00;9.56;99.99
68251;DHT22;55066;51.560;4.642;2024-02-04T02:04:26;9.56;99.99
68251;DHT22;55066;51.560;4.642;2024-02-04T02:06:53;9.44;99.99
68251;DHT22;55066;51.560;4.642;2024-02-04T02:09:19;9.34;99.99
68251;DHT22;55066;51.560;4.642;2024-02-04T02:11:52;9.28;99.99
68251;DHT22;55066;51.560;4.642;2024-02-04T02:14:27;9.28;99.99
68251;DHT22;55066;51.560;4.642;2024-02-04T02:16:57;9.39;99.99
68251;DHT22;55066;51.560;4.642;2024-02-04T02:19:47;9.31;99.99
68251;DHT22;55066;51.560;4.642;2024-02-04T02:22:58;9.32;99.99
68251;DHT22;55066;51.560;4.642;2024-02-04T02:25:27;9.34;99.99
68251;DHT22;55066;51.560;4.642;2024-02-04T02:27:52;9.55;99.99
68251;DHT22;55066;51.560;4.642;2024-02-04T02:30:18;9.58;99.99
68251;DHT22;55066;51.560;4.642;2024-02-04T02:32:44;9.58;99.99
68251;DHT22;55066;51.560;4.642;2024-02-04T02:35:20;9.49;99.99
68251;DHT22;55066;51.560;4.642;2024-02-04T02:38:11;9.52;99.99
68251;DHT22;55066;51.560;4.642;2024-02-04T02:40:49;9.42;99.99
68251;DHT22;55066;51.560;4.642;2024-02-04T02:43:17;9.48;99.99
68251;DHT22;55066;51.560;4.642;2024-02-04T02:45:44;9.48;99.99
68251;DHT22;55066;51.560;4.642;2024-02-04T02:48:11;9.42;99.99
68251;DHT22;55066;51.560;4.642;2024-02-04T02:50:37;9.45;99.99
68251;DHT22;55066;51.560;4.642;2024-02-04T02:53:04;9.42;99.99
68251;DHT22;55066;51.560;4.642;2024-02-04T02:55:29;9.42;99.99
68251;DHT22;55066;51.560;4.642;2024-02-04T02:57:55;9.37;99.99
68251;DHT22;55066;51.560;4.642;2024-02-04T03:00:20;9.44;99.99
68251;DHT22;55066;51.560;4.642;2024-02-04T03:02:46;9.45;99.99
68251;DHT22;55066;51.560;4.642;2024-02-04T03:05:12;9.51;99.99
68251;DHT22;55066;51.560;4.642;2024-02-04T03:07:38;9.51;99.99
68251;DHT22;55066;51.560;4.642;2024-02-04T03:10:04;9.54;99.99
68251;DHT22;55066;51.560;4.642;2024-02-04T03:12:29;9.52;99.99
68251;DHT22;55066;51.560;4.642;2024-02-04T03:14:55;9.44;99.99
68251;DHT22;55066;51.560;4.642;2024-02-04T03:17:21;9.48;99.99
68251;DHT22;55066;51.560;4.642;2024-02-04T03:19:48;9.51;99.99
68251;DHT22;55066;51.560;4.642;2024-02-04T03:22:15;9.55;99.99
68251;DHT22;55066;51.560;4.642;2024-02-04T03:24:40;9.61;99.99
68251;DHT22;55066;51.560;4.642;2024-02-04T03:27:06;9.55;99.99
68251;DHT22;55066;51.560;4.642;2024-02-04T03:29:31;9.56;99.99
68251;DHT22;55066;51.560;4.642;2024-02-04T03:31:57;9.58;99.99
68251;DHT22;55066;51.560;4.642;2024-02-04T03:34:23;9.62;99.99
68251;DHT22;55066;51.560;4.642;2024-02-04T03:36:48;9.63;99.99
68251;DHT22;55066;51.560;4.642;2024-02-04T03:39:14;9.62;99.99
68251;DHT22;55066;51.560;4.642;2024-02-04T03:41:39;9.68;99.99
68251;DHT22;55066;51.560;4.642;2024-02-04T03:44:05;9.61;99.99
68251;DHT22;55066;51.560;4.642;2024-02-04T03:46:32;9.62;99.99
68251;DHT22;55066;51.560;4.642;2024-02-04T03:48:58;9.66;99.99
68251;DHT22;55066;51.560;4.642;2024-02-04T03:51:23;9.71;99.99
68251;DHT22;55066;51.560;4.642;2024-02-04T03:53:50;9.66;99.99
68251;DHT22;55066;51.560;4.642;2024-02-04T03:56:16;9.69;99.99
68251;DHT22;55066;51.560;4.642;2024-02-04T03:58:41;9.71;99.99
68251;DHT22;55066;51.560;4.642;2024-02-04T04:01:11;9.65;99.99
68251;DHT22;55066;51.560;4.642;2024-02-04T04:03:41;9.73;99.99
68251;DHT22;55066;51.560;4.642;2024-02-04T04:06:07;9.72;99.99
68251;DHT22;55066;51.560;4.642;2024-02-04T04:08:34;9.69;99.99
68251;DHT22;55066;51.560;4.642;2024-02-04T04:10:59;9.66;99.99
68251;DHT22;55066;51.560;4.642;2024-02-04T04:13:24;9.68;99.99
68251;DHT22;55066;51.560;4.642;2024-02-04T04:15:50;9.79;99.99
68251;DHT22;55066;51.560;4.642;2024-02-04T04:18:16;9.78;99.99
68251;DHT22;55066;51.560;4.642;2024-02-04T04:20:41;9.78;99.99
68251;DHT22;55066;51.560;4.642;2024-02-04T04:23:07;9.81;99.99
68251;DHT22;55066;51.560;4.642;2024-02-04T04:25:32;9.69;99.99
68251;DHT22;55066;51.560;4.642;2024-02-04T04:27:58;9.66;99.99
68251;DHT22;55066;51.560;4.642;2024-02-04T04:30:24;9.72;99.99
68251;DHT22;55066;51.560;4.642;2024-02-04T04:32:49;9.72;99.99
68251;DHT22;55066;51.560;4.642;2024-02-04T04:35:15;9.75;99.99
68251;DHT22;55066;51.560;4.642;2024-02-04T04:37:41;9.68;99.99
68251;DHT22;55066;51.560;4.642;2024-02-04T04:40:07;9.73;99.99
68251;DHT22;55066;51.560;4.642;2024-02-04T04:42:32;9.73;99.99
68251;DHT22;55066;51.560;4.642;2024-02-04T04:44:58;9.69;99.99
68251;DHT22;55066;51.560;4.642;2024-02-04T04:47:23;9.75;99.99
68251;DHT22;55066;51.560;4.642;2024-02-04T04:49:49;9.69;99.99
68251;DHT22;55066;51.560;4.642;2024-02-04T04:52:14;9.73;99.99
68251;DHT22;55066;51.560;4.642;2024-02-04T04:54:40;9.73;99.99
68251;DHT22;55066;51.560;4.642;2024-02-04T04:57:05;9.73;99.99
68251;DHT22;55066;51.560;4.642;2024-02-04T04:59:31;9.71;99.99
68251;DHT22;55066;51.560;4.642;2024-02-04T05:01:57;9.68;99.99
68251;DHT22;55066;51.560;4.642;2024-02-04T05:04:22;9.66;99.99
68251;DHT22;55066;51.560;4.642;2024-02-04T05:06:51;9.69;99.99
68251;DHT22;55066;51.560;4.642;2024-02-04T05:09:16;9.66;99.99
68251;DHT22;55066;51.560;4.642;2024-02-04T05:11:42;9.73;99.99
68251;DHT22;55066;51.560;4.642;2024-02-04T05:14:08;9.68;99.99
68251;DHT22;55066;51.560;4.642;2024-02-04T05:16:33;9.69;99.99
68251;DHT22;55066;51.560;4.642;2024-02-04T05:18:59;9.75;99.99
68251;DHT22;55066;51.560;4.642;2024-02-04T05:21:24;9.65;99.99
68251;DHT22;55066;51.560;4.642;2024-02-04T05:23:50;9.72;99.99
68251;DHT22;55066;51.560;4.642;2024-02-04T05:26:17;9.66;99.99
68251;DHT22;55066;51.560;4.642;2024-02-04T05:28:44;9.66;99.99
68251;DHT22;55066;51.560;4.642;2024-02-04T05:31:09;9.72;99.99
68251;DHT22;55066;51.560;4.642;2024-02-04T05:33:34;9.72;99.99
68251;DHT22;55066;51.560;4.642;2024-02-04T05:36:00;9.73;99.99
68251;DHT22;55066;51.560;4.642;2024-02-04T05:38:25;9.71;99.99
68251;DHT22;55066;51.560;4.642;2024-02-04T05:40:51;9.68;99.99
68251;DHT22;55066;51.560;4.642;2024-02-04T05:43:16;9.68;99.99
68251;DHT22;55066;51.560;4.642;2024-02-04T05:45:42;9.69;99.99
68251;DHT22;55066;51.560;4.642;2024-02-04T05:48:08;9.71;99.99
68251;DHT22;55066;51.560;4.642;2024-02-04T05:50:34;9.71;99.99
68251;DHT22;55066;51.560;4.642;2024-02-04T05:53:00;9.69;99.99
68251;DHT22;55066;51.560;4.642;2024-02-04T05:55:26;9.62;99.99
68251;DHT22;55066;51.560;4.642;2024-02-04T05:57:51;9.78;99.99
68251;DHT22;55066;51.560;4.642;2024-02-04T06:00:17;9.71;99.99
68251;DHT22;55066;51.560;4.642;2024-02-04T06:02:43;9.66;99.99
68251;DHT22;55066;51.560;4.642;2024-02-04T06:05:13;9.73;99.99
68251;DHT22;55066;51.560;4.642;2024-02-04T06:07:39;9.66;99.99
68251;DHT22;55066;51.560;4.642;2024-02-04T06:10:08;9.69;99.99
68251;DHT22;55066;51.560;4.642;2024-02-04T06:12:34;9.66;99.99
68251;DHT22;55066;51.560;4.642;2024-02-04T06:14:59;9.66;99.99
68251;DHT22;55066;51.560;4.642;2024-02-04T06:17:25;9.63;99.99
68251;DHT22;55066;51.560;4.642;2024-02-04T06:19:51;9.71;99.99
68251;DHT22;55066;51.560;4.642;2024-02-04T06:22:17;9.69;99.99
68251;DHT22;55066;51.560;4.642;2024-02-04T06:24:42;9.79;99.99
68251;DHT22;55066;51.560;4.642;2024-02-04T06:27:08;9.78;99.99
68251;DHT22;55066;51.560;4.642;2024-02-04T06:29:35;9.73;99.99
68251;DHT22;55066;51.560;4.642;2024-02-04T06:32:02;9.76;99.99
68251;DHT22;55066;51.560;4.642;2024-02-04T06:34:29;9.68;99.99
68251;DHT22;55066;51.560;4.642;2024-02-04T06:36:54;9.76;99.99
68251;DHT22;55066;51.560;4.642;2024-02-04T06:39:20;9.72;99.99
68251;DHT22;55066;51.560;4.642;2024-02-04T06:41:45;9.78;99.99
68251;DHT22;55066;51.560;4.642;2024-02-04T06:44:11;9.75;99.99
68251;DHT22;55066;51.560;4.642;2024-02-04T06:46:37;9.71;99.99
68251;DHT22;55066;51.560;4.642;2024-02-04T06:49:02;9.76;99.99
68251;DHT22;55066;51.560;4.642;2024-02-04T06:51:28;9.71;99.99
68251;DHT22;55066;51.560;4.642;2024-02-04T06:53:54;9.76;99.99
68251;DHT22;55066;51.560;4.642;2024-02-04T06:56:19;9.73;99.99
68251;DHT22;55066;51.560;4.642;2024-02-04T06:58:45;9.78;99.99
68251;DHT22;55066;51.560;4.642;2024-02-04T07:01:11;9.82;99.99
68251;DHT22;55066;51.560;4.642;2024-02-04T07:03:36;9.78;99.99
68251;DHT22;55066;51.560;4.642;2024-02-04T07:06:02;9.76;99.99
68251;DHT22;55066;51.560;4.642;2024-02-04T07:08:27;9.76;99.99
68251;DHT22;55066;51.560;4.642;2024-02-04T07:10:53;9.81;99.99
68251;DHT22;55066;51.560;4.642;2024-02-04T07:13:19;9.73;99.99
68251;DHT22;55066;51.560;4.642;2024-02-04T07:15:45;9.75;99.99
68251;DHT22;55066;51.560;4.642;2024-02-04T07:18:10;9.73;99.99
68251;DHT22;55066;51.560;4.642;2024-02-04T07:20:36;9.76;99.99
68251;DHT22;55066;51.560;4.642;2024-02-04T07:23:02;9.76;99.99
68251;DHT22;55066;51.560;4.642;2024-02-04T07:25:28;9.83;99.99
68251;DHT22;55066;51.560;4.642;2024-02-04T07:27:54;9.81;99.99
68251;DHT22;55066;51.560;4.642;2024-02-04T07:30:20;9.82;99.99
68251;DHT22;55066;51.560;4.642;2024-02-04T07:32:46;9.82;99.99
68251;DHT22;55066;51.560;4.642;2024-02-04T07:35:12;9.78;99.99
68251;DHT22;55066;51.560;4.642;2024-02-04T07:37:39;9.82;99.99
68251;DHT22;55066;51.560;4.642;2024-02-04T07:40:05;9.81;99.99
68251;DHT22;55066;51.560;4.642;2024-02-04T07:42:31;9.78;99.99
68251;DHT22;55066;51.560;4.642;2024-02-04T07:44:56;9.81;99.99
68251;DHT22;55066;51.560;4.642;2024-02-04T07:47:22;9.78;99.99
68251;DHT22;55066;51.560;4.642;2024-02-04T07:49:48;9.85;99.99
68251;DHT22;55066;51.560;4.642;2024-02-04T07:52:14;9.90;99.99
68251;DHT22;55066;51.560;4.642;2024-02-04T07:54:39;9.89;99.99
68251;DHT22;55066;51.560;4.642;2024-02-04T07:57:05;9.92;99.99
68251;DHT22;55066;51.560;4.642;2024-02-04T07:59:30;9.93;99.99
68251;DHT22;55066;51.560;4.642;2024-02-04T08:01:56;9.92;99.99
68251;DHT22;55066;51.560;4.642;2024-02-04T08:04:21;9.96;99.99
68251;DHT22;55066;51.560;4.642;2024-02-04T08:06:48;9.92;99.99
68251;DHT22;55066;51.560;4.642;2024-02-04T08:09:14;9.96;99.99
68251;DHT22;55066;51.560;4.642;2024-02-04T08:11:40;9.92;99.99
68251;DHT22;55066;51.560;4.642;2024-02-04T08:14:05;9.93;99.99
68251;DHT22;55066;51.560;4.642;2024-02-04T08:16:31;9.94;99.99
68251;DHT22;55066;51.560;4.642;2024-02-04T08:18:56;9.94;99.99
68251;DHT22;55066;51.560;4.642;2024-02-04T08:21:22;9.97;99.99
68251;DHT22;55066;51.560;4.642;2024-02-04T08:23:47;10.02;99.99
68251;DHT22;55066;51.560;4.642;2024-02-04T08:26:13;10.00;99.99
68251;DHT22;55066;51.560;4.642;2024-02-04T08:28:38;10.00;99.99
68251;DHT22;55066;51.560;4.642;2024-02-04T08:31:04;10.06;99.99
68251;DHT22;55066;51.560;4.642;2024-02-04T08:33:29;10.02;99.99
68251;DHT22;55066;51.560;4.642;2024-02-04T08:35:54;10.07;99.99
68251;DHT22;55066;51.560;4.642;2024-02-04T08:38:20;10.11;99.99
68251;DHT22;55066;51.560;4.642;2024-02-04T08:40:45;10.02;99.99
68251;DHT22;55066;51.560;4.642;2024-02-04T08:43:11;10.14;99.99
68251;DHT22;55066;51.560;4.642;2024-02-04T08:45:36;10.09;99.99
68251;DHT22;55066;51.560;4.642;2024-02-04T08:48:02;10.14;99.99
68251;DHT22;55066;51.560;4.642;2024-02-04T08:50:28;10.16;99.99
68251;DHT22;55066;51.560;4.642;2024-02-04T08:52:54;10.14;99.99
68251;DHT22;55066;51.560;4.642;2024-02-04T08:55:19;10.16;99.99
68251;DHT22;55066;51.560;4.642;2024-02-04T08:57:45;10.11;99.99
68251;DHT22;55066;51.560;4.642;2024-02-04T09:00:11;10.17;99.99
68251;DHT22;55066;51.560;4.642;2024-02-04T09:02:37;10.11;99.99
68251;DHT22;55066;51.560;4.642;2024-02-04T09:05:03;10.16;99.99
68251;DHT22;55066;51.560;4.642;2024-02-04T09:07:30;10.14;99.99
68251;DHT22;55066;51.560;4.642;2024-02-04T09:09:56;10.16;99.99
68251;DHT22;55066;51.560;4.642;2024-02-04T09:12:22;10.17;99.99
68251;DHT22;55066;51.560;4.642;2024-02-04T09:14:47;10.21;99.99
68251;DHT22;55066;51.560;4.642;2024-02-04T09:17:13;10.17;99.99
68251;DHT22;55066;51.560;4.642;2024-02-04T09:19:39;10.21;99.99
68251;DHT22;55066;51.560;4.642;2024-02-04T09:22:04;10.21;99.99
68251;DHT22;55066;51.560;4.642;2024-02-04T09:24:30;10.21;99.99
68251;DHT22;55066;51.560;4.642;2024-02-04T09:26:55;10.25;99.99
68251;DHT22;55066;51.560;4.642;2024-02-04T09:29:21;10.21;99.99
68251;DHT22;55066;51.560;4.642;2024-02-04T09:31:47;10.18;99.99
68251;DHT22;55066;51.560;4.642;2024-02-04T09:34:14;10.17;99.99
68251;DHT22;55066;51.560;4.642;2024-02-04T09:36:40;10.21;99.99
68251;DHT22;55066;51.560;4.642;2024-02-04T09:39:05;10.24;99.99
68251;DHT22;55066;51.560;4.642;2024-02-04T09:41:31;10.22;99.99
68251;DHT22;55066;51.560;4.642;2024-02-04T09:43:58;10.25;99.99
68251;DHT22;55066;51.560;4.642;2024-02-04T09:46:25;10.22;99.99
68251;DHT22;55066;51.560;4.642;2024-02-04T09:48:51;10.22;99.99
68251;DHT22;55066;51.560;4.642;2024-02-04T09:51:17;10.30;99.99
68251;DHT22;55066;51.560;4.642;2024-02-04T09:53:44;10.30;99.99
68251;DHT22;55066;51.560;4.642;2024-02-04T09:56:12;10.30;99.99
68251;DHT22;55066;51.560;4.642;2024-02-04T09:58:38;10.25;99.99
68251;DHT22;55066;51.560;4.642;2024-02-04T10:01:06;10.27;99.99
68251;DHT22;55066;51.560;4.642;2024-02-04T10:03:35;10.27;99.99
68251;DHT22;55066;51.560;4.642;2024-02-04T10:06:01;10.25;99.99
68251;DHT22;55066;51.560;4.642;2024-02-04T10:08:26;10.33;99.99
68251;DHT22;55066;51.560;4.642;2024-02-04T10:10:52;10.33;99.99
68251;DHT22;55066;51.560;4.642;2024-02-04T10:13:19;10.31;99.99
68251;DHT22;55066;51.560;4.642;2024-02-04T10:15:47;10.33;99.99
68251;DHT22;55066;51.560;4.642;2024-02-04T10:18:12;10.38;99.99
68251;DHT22;55066;51.560;4.642;2024-02-04T10:20:38;10.36;99.99
68251;DHT22;55066;51.560;4.642;2024-02-04T10:23:03;10.38;99.99
68251;DHT22;55066;51.560;4.642;2024-02-04T10:25:29;10.40;99.99
68251;DHT22;55066;51.560;4.642;2024-02-04T10:27:55;10.45;99.99
68251;DHT22;55066;51.560;4.642;2024-02-04T10:30:21;10.51;99.99
68251;DHT22;55066;51.560;4.642;2024-02-04T10:32:50;10.55;99.99
68251;DHT22;55066;51.560;4.642;2024-02-04T10:35:16;10.52;99.99
68251;DHT22;55066;51.560;4.642;2024-02-04T10:37:47;10.61;99.99
68251;DHT22;55066;51.560;4.642;2024-02-04T10:40:12;10.62;99.99
68251;DHT22;55066;51.560;4.642;2024-02-04T10:42:38;10.66;99.99
68251;DHT22;55066;51.560;4.642;2024-02-04T10:45:07;10.69;99.99
68251;DHT22;55066;51.560;4.642;2024-02-04T10:47:37;10.68;99.99
68251;DHT22;55066;51.560;4.642;2024-02-04T10:50:05;10.73;99.99
68251;DHT22;55066;51.560;4.642;2024-02-04T10:52:37;10.78;99.99
68251;DHT22;55066;51.560;4.642;2024-02-04T10:55:08;10.80;99.99
68251;DHT22;55066;51.560;4.642;2024-02-04T10:57:38;10.83;99.99
68251;DHT22;55066;51.560;4.642;2024-02-04T11:00:05;10.88;99.99
68251;DHT22;55066;51.560;4.642;2024-02-04T11:02:34;10.91;99.99
68251;DHT22;55066;51.560;4.642;2024-02-04T11:05:03;10.96;99.99
68251;DHT22;55066;51.560;4.642;2024-02-04T11:07:32;10.99;99.99
68251;DHT22;55066;51.560;4.642;2024-02-04T11:10:00;10.97;99.99
68251;DHT22;55066;51.560;4.642;2024-02-04T11:12:27;11.00;99.99
68251;DHT22;55066;51.560;4.642;2024-02-04T11:14:57;11.04;99.99
68251;DHT22;55066;51.560;4.642;2024-02-04T11:26:06;11.22;99.99
68251;DHT22;55066;51.560;4.642;2024-02-04T11:28:32;11.23;99.99
68251;DHT22;55066;51.560;4.642;2024-02-04T11:30:58;11.31;99.99
68251;DHT22;55066;51.560;4.642;2024-02-04T11:33:24;11.35;99.99
68251;DHT22;55066;51.560;4.642;2024-02-04T11:36:05;11.34;99.99
68251;DHT22;55066;51.560;4.642;2024-02-04T11:38:36;11.35;99.99
68251;DHT22;55066;51.560;4.642;2024-02-04T11:41:05;11.28;99.99
68251;DHT22;55066;51.560;4.642;2024-02-04T11:43:34;11.38;99.99
68251;DHT22;55066;51.560;4.642;2024-02-04T11:46:02;11.45;99.99
68251;DHT22;55066;51.560;4.642;2024-02-04T11:48:35;11.54;99.99
68251;DHT22;55066;51.560;4.642;2024-02-04T11:51:03;11.65;99.99
68251;DHT22;55066;51.560;4.642;2024-02-04T11:53:29;11.62;99.99
68251;DHT22;55066;51.560;4.642;2024-02-04T11:56:02;11.68;99.99
68251;DHT22;55066;51.560;4.642;2024-02-04T11:58:29;11.67;99.99
68251;DHT22;55066;51.560;4.642;2024-02-04T12:00:56;11.78;99.99
68251;DHT22;55066;51.560;4.642;2024-02-04T12:03:33;11.74;99.99
68251;DHT22;55066;51.560;4.642;2024-02-04T12:05:59;11.78;99.99
68251;DHT22;55066;51.560;4.642;2024-02-04T12:08:26;11.88;99.99
68251;DHT22;55066;51.560;4.642;2024-02-04T12:10:53;12.16;99.99
68251;DHT22;55066;51.560;4.642;2024-02-04T12:13:18;12.29;99.99
68251;DHT22;55066;51.560;4.642;2024-02-04T12:15:46;12.47;99.99
68251;DHT22;55066;51.560;4.642;2024-02-04T12:18:12;12.61;99.99
68251;DHT22;55066;51.560;4.642;2024-02-04T12:20:39;12.50;99.99
68251;DHT22;55066;51.560;4.642;2024-02-04T12:23:06;12.57;99.99
68251;DHT22;55066;51.560;4.642;2024-02-04T12:25:32;12.72;99.99
68251;DHT22;55066;51.560;4.642;2024-02-04T12:27:58;12.60;99.99
68251;DHT22;55066;51.560;4.642;2024-02-04T12:30:24;12.65;99.99
68251;DHT22;55066;51.560;4.642;2024-02-04T12:33:00;12.57;99.99
68251;DHT22;55066;51.560;4.642;2024-02-04T12:35:27;12.51;99.99
68251;DHT22;55066;51.560;4.642;2024-02-04T12:37:56;12.57;99.99
68251;DHT22;55066;51.560;4.642;2024-02-04T12:40:26;12.51;99.99
68251;DHT22;55066;51.560;4.642;2024-02-04T12:42:59;12.45;99.99
68251;DHT22;55066;51.560;4.642;2024-02-04T12:45:27;12.38;99.99
68251;DHT22;55066;51.560;4.642;2024-02-04T12:47:57;12.50;99.99
68251;DHT22;55066;51.560;4.642;2024-02-04T12:50:24;12.55;99.99
68251;DHT22;55066;51.560;4.642;2024-02-04T12:53:02;12.75;99.99
68251;DHT22;55066;51.560;4.642;2024-02-04T12:55:29;12.75;99.99
68251;DHT22;55066;51.560;4.642;2024-02-04T12:58:13;12.74;99.99
68251;DHT22;55066;51.560;4.642;2024-02-04T13:00:42;12.72;99.99
68251;DHT22;55066;51.560;4.642;2024-02-04T13:03:08;12.89;99.99
68251;DHT22;55066;51.560;4.642;2024-02-04T13:05:34;13.02;99.99
68251;DHT22;55066;51.560;4.642;2024-02-04T13:08:01;12.92;99.99
68251;DHT22;55066;51.560;4.642;2024-02-04T13:10:28;13.06;99.99
68251;DHT22;55066;51.560;4.642;2024-02-04T13:13:07;13.06;99.99
68251;DHT22;55066;51.560;4.642;2024-02-04T13:15:39;13.00;99.99
68251;DHT22;55066;51.560;4.642;2024-02-04T13:18:06;13.15;99.99
68251;DHT22;55066;51.560;4.642;2024-02-04T13:20:31;13.05;99.99
68251;DHT22;55066;51.560;4.642;2024-02-04T13:22:57;13.10;99.99
68251;DHT22;55066;51.560;4.642;2024-02-04T13:25:23;13.16;99.99
68251;DHT22;55066;51.560;4.642;2024-02-04T13:27:49;13.15;99.99
68251;DHT22;55066;51.560;4.642;2024-02-04T13:30:15;13.00;99.99
68251;DHT22;55066;51.560;4.642;2024-02-04T13:32:41;13.05;99.99
68251;DHT22;55066;51.560;4.642;2024-02-04T13:35:08;13.03;99.99
68251;DHT22;55066;51.560;4.642;2024-02-04T13:37:40;13.02;99.99
68251;DHT22;55066;51.560;4.642;2024-02-04T13:40:06;12.92;99.99
68251;DHT22;55066;51.560;4.642;2024-02-04T13:42:34;13.09;99.99
68251;DHT22;55066;51.560;4.642;2024-02-04T13:45:01;13.18;99.99
68251;DHT22;55066;51.560;4.642;2024-02-04T13:47:27;13.10;99.99
68251;DHT22;55066;51.560;4.642;2024-02-04T13:49:52;12.92;99.99
68251;DHT22;55066;51.560;4.642;2024-02-04T13:52:18;12.95;99.99
68251;DHT22;55066;51.560;4.642;2024-02-04T13:54:44;13.26;99.99
68251;DHT22;55066;51.560;4.642;2024-02-04T13:57:09;13.19;99.99
68251;DHT22;55066;51.560;4.642;2024-02-04T13:59:36;13.06;99.99
68251;DHT22;55066;51.560;4.642;2024-02-04T14:02:01;13.22;99.99
68251;DHT22;55066;51.560;4.642;2024-02-04T14:04:27;13.20;99.99
68251;DHT22;55066;51.560;4.642;2024-02-04T14:06:52;13.09;99.99
68251;DHT22;55066;51.560;4.642;2024-02-04T14:09:18;13.20;99.99
68251;DHT22;55066;51.560;4.642;2024-02-04T14:11:43;13.06;99.99
68251;DHT22;55066;51.560;4.642;2024-02-04T14:14:09;13.13;99.99
68251;DHT22;55066;51.560;4.642;2024-02-04T14:16:34;13.20;99.99
68251;DHT22;55066;51.560;4.642;2024-02-04T14:19:00;13.20;99.99
68251;DHT22;55066;51.560;4.642;2024-02-04T14:21:25;13.18;99.99
68251;DHT22;55066;51.560;4.642;2024-02-04T14:23:51;13.16;99.99
68251;DHT22;55066;51.560;4.642;2024-02-04T14:26:20;13.06;99.99
68251;DHT22;55066;51.560;4.642;2024-02-04T14:28:45;13.02;99.99
68251;DHT22;55066;51.560;4.642;2024-02-04T14:31:11;12.95;99.99
68251;DHT22;55066;51.560;4.642;2024-02-04T14:33:37;12.88;99.99
68251;DHT22;55066;51.560;4.642;2024-02-04T14:36:03;12.96;99.99
68251;DHT22;55066;51.560;4.642;2024-02-04T14:38:29;12.88;99.99
68251;DHT22;55066;51.560;4.642;2024-02-04T14:40:57;12.78;99.99
68251;DHT22;55066;51.560;4.642;2024-02-04T14:43:24;12.69;99.99
68251;DHT22;55066;51.560;4.642;2024-02-04T14:45:50;12.71;99.99
68251;DHT22;55066;51.560;4.642;2024-02-04T14:48:15;12.68;99.99
68251;DHT22;55066;51.560;4.642;2024-02-04T14:50:41;12.74;99.99
68251;DHT22;55066;51.560;4.642;2024-02-04T14:53:06;12.69;99.99
68251;DHT22;55066;51.560;4.642;2024-02-04T14:55:32;12.67;99.99
68251;DHT22;55066;51.560;4.642;2024-02-04T14:57:58;12.62;99.99
68251;DHT22;55066;51.560;4.642;2024-02-04T15:00:23;12.58;99.99
68251;DHT22;55066;51.560;4.642;2024-02-04T15:02:50;12.62;99.99
68251;DHT22;55066;51.560;4.642;2024-02-04T15:05:16;12.60;99.99
68251;DHT22;55066;51.560;4.642;2024-02-04T15:07:42;12.60;99.99
68251;DHT22;55066;51.560;4.642;2024-02-04T15:10:08;12.60;99.99
68251;DHT22;55066;51.560;4.642;2024-02-04T15:12:36;12.51;99.99
68251;DHT22;55066;51.560;4.642;2024-02-04T15:15:03;12.54;99.99
68251;DHT22;55066;51.560;4.642;2024-02-04T15:17:29;12.57;99.99
68251;DHT22;55066;51.560;4.642;2024-02-04T15:19:54;12.53;99.99
68251;DHT22;55066;51.560;4.642;2024-02-04T15:22:20;12.57;99.99
68251;DHT22;55066;51.560;4.642;2024-02-04T15:24:46;12.55;99.99
68251;DHT22;55066;51.560;4.642;2024-02-04T15:27:14;12.57;99.99
68251;DHT22;55066;51.560;4.642;2024-02-04T15:29:42;12.48;99.99
68251;DHT22;55066;51.560;4.642;2024-02-04T15:32:08;12.50;99.99
68251;DHT22;55066;51.560;4.642;2024-02-04T15:34:34;12.48;99.99
68251;DHT22;55066;51.560;4.642;2024-02-04T15:37:02;12.48;99.99
68251;DHT22;55066;51.560;4.642;2024-02-04T15:39:28;12.41;99.99
68251;DHT22;55066;51.560;4.642;2024-02-04T15:41:53;12.40;99.99